sensor_id;sensor_type;location;lat;lon;timestamp;pressure;altitude;pressure_sealevel;temperature;humidity
81835;BME280;71272;52.166;4.498;2024-03-08T00:01:25;101908.72;;;4.22;100.00
81835;BME280;71272;52.166;4.498;2024-03-08T00:03:50;101905.22;;;4.42;100.00
81835;BME280;71272;52.166;4.498;2024-03-08T00:06:17;101911.66;;;4.55;100.00
81835;BME280;71272;52.166;4.498;2024-03-08T00:08:42;101897.31;;;4.53;100.00
81835;BME280;71272;52.166;4.498;2024-03-08T00:11:08;101902.69;;;4.50;100.00
81835;BME280;71272;52.166;4.498;2024-03-08T00:13:33;101896.19;;;4.45;100.00
81835;BME280;71272;52.166;4.498;2024-03-08T00:15:59;101890.16;;;4.14;100.00
81835;BME280;71272;52.166;4.498;2024-03-08T00:18:24;101896.13;;;4.25;100.00
81835;BME280;71272;52.166;4.498;2024-03-08T00:20:50;101887.75;;;4.33;100.00
81835;BME280;71272;52.166;4.498;2024-03-08T00:23:16;101896.34;;;4.49;100.00
81835;BME280;71272;52.166;4.498;2024-03-08T00:25:41;101882.31;;;4.45;100.00
81835;BME280;71272;52.166;4.498;2024-03-08T00:28:06;101885.59;;;4.39;100.00
81835;BME280;71272;52.166;4.498;2024-03-08T00:30:32;101888.06;;;4.40;100.00
81835;BME280;71272;52.166;4.498;2024-03-08T00:32:57;101886.63;;;4.34;100.00
81835;BME280;71272;52.166;4.498;2024-03-08T00:35:22;101888.59;;;4.34;100.00
81835;BME280;71272;52.166;4.498;2024-03-08T00:37:48;101889.91;;;4.28;100.00
81835;BME280;71272;52.166;4.498;2024-03-08T00:40:13;101875.25;;;4.18;100.00
81835;BME280;71272;52.166;4.498;2024-03-08T00:42:39;101877.69;;;4.20;100.00
81835;BME280;71272;52.166;4.498;2024-03-08T00:45:06;101877.47;;;4.34;100.00
81835;BME280;71272;52.166;4.498;2024-03-08T00:47:31;101870.81;;;4.26;100.00
81835;BME280;71272;52.166;4.498;2024-03-08T00:49:57;101875.06;;;4.23;100.00
81835;BME280;71272;52.166;4.498;2024-03-08T00:52:22;101860.56;;;4.18;100.00
81835;BME280;71272;52.166;4.498;2024-03-08T00:54:49;101868.59;;;4.11;100.00
81835;BME280;71272;52.166;4.498;2024-03-08T00:57:14;101863.34;;;3.80;100.00
81835;BME280;71272;52.166;4.498;2024-03-08T00:59:40;101855.16;;;3.83;100.00
81835;BME280;71272;52.166;4.498;2024-03-08T01:02:05;101847.50;;;3.80;100.00
81835;BME280;71272;52.166;4.498;2024-03-08T01:04:31;101856.78;;;3.84;100.00
81835;BME280;71272;52.166;4.498;2024-03-08T01:06:57;101858.16;;;3.69;100.00
81835;BME280;71272;52.166;4.498;2024-03-08T01:09:24;101849.44;;;3.88;100.00
81835;BME280;71272;52.166;4.498;2024-03-08T01:11:49;101850.00;;;3.64;100.00
81835;BME280;71272;52.166;4.498;2024-03-08T01:14:15;101844.38;;;3.82;100.00
81835;BME280;71272;52.166;4.498;2024-03-08T01:16:41;101836.25;;;3.76;100.00
81835;BME280;71272;52.166;4.498;2024-03-08T01:19:06;101831.06;;;3.66;100.00
81835;BME280;71272;52.166;4.498;2024-03-08T01:21:31;101832.34;;;3.77;100.00
81835;BME280;71272;52.166;4.498;2024-03-08T01:23:57;101823.53;;;3.75;100.00
81835;BME280;71272;52.166;4.498;2024-03-08T01:26:22;101820.56;;;3.81;100.00
81835;BME280;71272;52.166;4.498;2024-03-08T01:28:48;101818.31;;;3.74;100.00
81835;BME280;71272;52.166;4.498;2024-03-08T01:31:13;101813.41;;;3.71;100.00
81835;BME280;71272;52.166;4.498;2024-03-08T01:33:39;101811.13;;;3.73;100.00
81835;BME280;71272;52.166;4.498;2024-03-08T01:36:05;101808.19;;;3.69;100.00
81835;BME280;71272;52.166;4.498;2024-03-08T01:38:30;101812.75;;;3.74;100.00
81835;BME280;71272;52.166;4.498;2024-03-08T01:40:56;101815.91;;;3.64;100.00
81835;BME280;71272;52.166;4.498;2024-03-08T01:43:24;101807.22;;;3.65;100.00
81835;BME280;71272;52.166;4.498;2024-03-08T01:45:50;101801.34;;;3.67;100.00
81835;BME280;71272;52.166;4.498;2024-03-08T01:48:16;101791.25;;;3.62;100.00
81835;BME280;71272;52.166;4.498;2024-03-08T01:50:42;101795.03;;;3.58;100.00
81835;BME280;71272;52.166;4.498;2024-03-08T01:53:08;101784.09;;;3.61;100.00
81835;BME280;71272;52.166;4.498;2024-03-08T01:55:35;101791.09;;;3.59;100.00
81835;BME280;71272;52.166;4.498;2024-03-08T01:58:03;101787.69;;;3.53;100.00
81835;BME280;71272;52.166;4.498;2024-03-08T02:00:29;101783.94;;;3.58;100.00
81835;BME280;71272;52.166;4.498;2024-03-08T02:02:55;101779.56;;;3.48;100.00
81835;BME280;71272;52.166;4.498;2024-03-08T02:05:21;101776.47;;;3.49;100.00
81835;BME280;71272;52.166;4.498;2024-03-08T02:07:46;101777.09;;;3.46;100.00
81835;BME280;71272;52.166;4.498;2024-03-08T02:10:12;101774.53;;;3.41;100.00
81835;BME280;71272;52.166;4.498;2024-03-08T02:12:38;101774.31;;;3.46;100.00
81835;BME280;71272;52.166;4.498;2024-03-08T02:15:04;101774.84;;;3.40;100.00
81835;BME280;71272;52.166;4.498;2024-03-08T02:17:31;101769.16;;;3.36;100.00
81835;BME280;71272;52.166;4.498;2024-03-08T02:19:56;101767.50;;;3.35;100.00
81835;BME280;71272;52.166;4.498;2024-03-08T02:22:22;101762.47;;;3.37;100.00
81835;BME280;71272;52.166;4.498;2024-03-08T02:24:47;101768.94;;;3.03;100.00
81835;BME280;71272;52.166;4.498;2024-03-08T02:27:13;101752.63;;;3.01;100.00
81835;BME280;71272;52.166;4.498;2024-03-08T02:29:39;101745.56;;;3.13;100.00
81835;BME280;71272;52.166;4.498;2024-03-08T02:32:06;101752.63;;;2.93;100.00
81835;BME280;71272;52.166;4.498;2024-03-08T02:34:31;101741.34;;;3.06;100.00
81835;BME280;71272;52.166;4.498;2024-03-08T02:36:56;101742.31;;;3.10;100.00
81835;BME280;71272;52.166;4.498;2024-03-08T02:39:22;101734.66;;;3.07;100.00
81835;BME280;71272;52.166;4.498;2024-03-08T02:41:47;101732.53;;;3.04;100.00
81835;BME280;71272;52.166;4.498;2024-03-08T02:44:12;101732.69;;;3.08;100.00
81835;BME280;71272;52.166;4.498;2024-03-08T02:46:38;101731.91;;;2.99;100.00
81835;BME280;71272;52.166;4.498;2024-03-08T02:49:03;101723.75;;;3.02;100.00
81835;BME280;71272;52.166;4.498;2024-03-08T02:51:29;101718.38;;;3.06;100.00
81835;BME280;71272;52.166;4.498;2024-03-08T02:53:54;101722.44;;;3.00;100.00
81835;BME280;71272;52.166;4.498;2024-03-08T02:56:19;101723.09;;;2.97;100.00
81835;BME280;71272;52.166;4.498;2024-03-08T02:58:47;101725.91;;;2.88;100.00
81835;BME280;71272;52.166;4.498;2024-03-08T03:01:14;101718.56;;;2.92;100.00
81835;BME280;71272;52.166;4.498;2024-03-08T03:03:40;101720.34;;;2.97;100.00
81835;BME280;71272;52.166;4.498;2024-03-08T03:06:06;101720.84;;;2.90;100.00
81835;BME280;71272;52.166;4.498;2024-03-08T03:08:32;101716.78;;;2.87;100.00
81835;BME280;71272;52.166;4.498;2024-03-08T03:10:57;101713.03;;;2.92;100.00
81835;BME280;71272;52.166;4.498;2024-03-08T03:13:23;101707.81;;;2.82;100.00
81835;BME280;71272;52.166;4.498;2024-03-08T03:15:48;101704.38;;;2.85;100.00
81835;BME280;71272;52.166;4.498;2024-03-08T03:18:14;101705.38;;;2.80;100.00
81835;BME280;71272;52.166;4.498;2024-03-08T03:20:40;101690.72;;;2.71;100.00
81835;BME280;71272;52.166;4.498;2024-03-08T03:23:08;101696.75;;;2.73;100.00
81835;BME280;71272;52.166;4.498;2024-03-08T03:25:34;101689.13;;;2.70;100.00
81835;BME280;71272;52.166;4.498;2024-03-08T03:28:03;101690.09;;;2.65;100.00
81835;BME280;71272;52.166;4.498;2024-03-08T03:30:29;101691.53;;;2.72;100.00
81835;BME280;71272;52.166;4.498;2024-03-08T03:33:01;101686.66;;;2.69;100.00
81835;BME280;71272;52.166;4.498;2024-03-08T03:35:27;101682.41;;;2.71;100.00
81835;BME280;71272;52.166;4.498;2024-03-08T03:37:53;101680.47;;;2.72;100.00
81835;BME280;71272;52.166;4.498;2024-03-08T03:40:32;101670.69;;;2.65;100.00
81835;BME280;71272;52.166;4.498;2024-03-08T03:42:57;101675.44;;;2.65;100.00
81835;BME280;71272;52.166;4.498;2024-03-08T03:45:23;101683.09;;;2.59;100.00
81835;BME280;71272;52.166;4.498;2024-03-08T03:47:49;101677.56;;;2.51;100.00
81835;BME280;71272;52.166;4.498;2024-03-08T03:50:14;101677.56;;;2.59;100.00
81835;BME280;71272;52.166;4.498;2024-03-08T03:52:40;101671.84;;;2.56;100.00
81835;BME280;71272;52.166;4.498;2024-03-08T03:55:07;101661.09;;;2.63;100.00
81835;BME280;71272;52.166;4.498;2024-03-08T03:57:33;101663.88;;;2.54;100.00
81835;BME280;71272;52.166;4.498;2024-03-08T03:59:58;101668.63;;;2.54;100.00
81835;BME280;71272;52.166;4.498;2024-03-08T04:02:24;101662.91;;;2.50;100.00
81835;BME280;71272;52.166;4.498;2024-03-08T04:04:52;101664.88;;;2.41;100.00
81835;BME280;71272;52.166;4.498;2024-03-08T04:07:17;101660.28;;;2.45;100.00
81835;BME280;71272;52.166;4.498;2024-03-08T04:09:42;101664.22;;;2.35;100.00
81835;BME280;71272;52.166;4.498;2024-03-08T04:12:08;101646.28;;;2.41;100.00
81835;BME280;71272;52.166;4.498;2024-03-08T04:14:35;101651.03;;;2.41;100.00
81835;BME280;71272;52.166;4.498;2024-03-08T04:17:00;101643.19;;;2.34;100.00
81835;BME280;71272;52.166;4.498;2024-03-08T04:19:25;101642.41;;;2.25;100.00
81835;BME280;71272;52.166;4.498;2024-03-08T04:21:53;101636.38;;;2.23;100.00
81835;BME280;71272;52.166;4.498;2024-03-08T04:24:18;101641.91;;;2.32;100.00
81835;BME280;71272;52.166;4.498;2024-03-08T04:26:45;101644.38;;;2.25;100.00
81835;BME280;71272;52.166;4.498;2024-03-08T04:29:10;101643.22;;;2.26;100.00
81835;BME280;71272;52.166;4.498;2024-03-08T04:31:36;101641.75;;;2.19;100.00
81835;BME280;71272;52.166;4.498;2024-03-08T04:34:03;101638.50;;;2.17;100.00
81835;BME280;71272;52.166;4.498;2024-03-08T04:36:30;101635.59;;;2.05;100.00
81835;BME280;71272;52.166;4.498;2024-03-08T04:38:55;101637.69;;;2.08;100.00
81835;BME280;71272;52.166;4.498;2024-03-08T04:41:21;101628.75;;;2.03;100.00
81835;BME280;71272;52.166;4.498;2024-03-08T04:43:46;101630.34;;;2.04;100.00
81835;BME280;71272;52.166;4.498;2024-03-08T04:46:11;101635.25;;;2.07;100.00
81835;BME280;71272;52.166;4.498;2024-03-08T04:48:37;101633.28;;;2.07;100.00
81835;BME280;71272;52.166;4.498;2024-03-08T04:51:03;101628.41;;;2.21;100.00
81835;BME280;71272;52.166;4.498;2024-03-08T04:53:29;101630.53;;;2.25;100.00
81835;BME280;71272;52.166;4.498;2024-03-08T04:55:54;101628.41;;;2.21;100.00
81835;BME280;71272;52.166;4.498;2024-03-08T04:58:22;101623.69;;;2.13;100.00
81835;BME280;71272;52.166;4.498;2024-03-08T05:00:48;101619.78;;;2.14;100.00
81835;BME280;71272;52.166;4.498;2024-03-08T05:03:13;101619.47;;;2.16;100.00
81835;BME280;71272;52.166;4.498;2024-03-08T05:05:39;101616.69;;;2.07;100.00
81835;BME280;71272;52.166;4.498;2024-03-08T05:08:04;101608.72;;;2.06;100.00
81835;BME280;71272;52.166;4.498;2024-03-08T05:10:30;101617.66;;;2.11;100.00
81835;BME280;71272;52.166;4.498;2024-03-08T05:12:55;101608.06;;;2.00;100.00
81835;BME280;71272;52.166;4.498;2024-03-08T05:15:21;101605.31;;;2.00;100.00
81835;BME280;71272;52.166;4.498;2024-03-08T05:17:46;101606.09;;;2.00;100.00
81835;BME280;71272;52.166;4.498;2024-03-08T05:20:12;101613.44;;;2.05;100.00
81835;BME280;71272;52.166;4.498;2024-03-08T05:22:38;101608.88;;;2.09;100.00
81835;BME280;71272;52.166;4.498;2024-03-08T05:25:05;101604.66;;;2.03;100.00
81835;BME280;71272;52.166;4.498;2024-03-08T05:27:33;101609.38;;;1.94;100.00
81835;BME280;71272;52.166;4.498;2024-03-08T05:29:59;101597.31;;;1.81;100.00
81835;BME280;71272;52.166;4.498;2024-03-08T05:32:24;101600.59;;;1.83;100.00
81835;BME280;71272;52.166;4.498;2024-03-08T05:34:50;101602.53;;;1.91;100.00
81835;BME280;71272;52.166;4.498;2024-03-08T05:37:15;101596.81;;;1.79;100.00
81835;BME280;71272;52.166;4.498;2024-03-08T05:39:41;101597.16;;;1.77;100.00
81835;BME280;71272;52.166;4.498;2024-03-08T05:42:06;101598.47;;;1.80;100.00
81835;BME280;71272;52.166;4.498;2024-03-08T05:44:34;101598.63;;;1.75;100.00
81835;BME280;71272;52.166;4.498;2024-03-08T05:46:59;101591.44;;;1.74;100.00
81835;BME280;71272;52.166;4.498;2024-03-08T05:49:24;101594.88;;;1.80;100.00
81835;BME280;71272;52.166;4.498;2024-03-08T05:51:50;101595.38;;;1.73;100.00
81835;BME280;71272;52.166;4.498;2024-03-08T05:54:16;101593.41;;;1.82;100.00
81835;BME280;71272;52.166;4.498;2024-03-08T05:56:42;101596.19;;;1.82;100.00
81835;BME280;71272;52.166;4.498;2024-03-08T05:59:08;101591.44;;;1.74;100.00
81835;BME280;71272;52.166;4.498;2024-03-08T06:01:34;101583.97;;;1.74;100.00
81835;BME280;71272;52.166;4.498;2024-03-08T06:04:02;101582.50;;;1.68;100.00
81835;BME280;71272;52.166;4.498;2024-03-08T06:06:28;101580.53;;;1.69;100.00
81835;BME280;71272;52.166;4.498;2024-03-08T06:08:53;101582.84;;;1.75;100.00
81835;BME280;71272;52.166;4.498;2024-03-08T06:11:21;101581.03;;;1.71;100.00
81835;BME280;71272;52.166;4.498;2024-03-08T06:13:46;101580.38;;;1.65;100.00
81835;BME280;71272;52.166;4.498;2024-03-08T06:16:12;101580.22;;;1.70;100.00
81835;BME280;71272;52.166;4.498;2024-03-08T06:18:38;101577.97;;;1.72;100.00
81835;BME280;71272;52.166;4.498;2024-03-08T06:21:04;101569.97;;;1.71;100.00
81835;BME280;71272;52.166;4.498;2024-03-08T06:23:33;101571.44;;;1.68;100.00
81835;BME280;71272;52.166;4.498;2024-03-08T06:25:59;101571.44;;;1.68;100.00
81835;BME280;71272;52.166;4.498;2024-03-08T06:28:24;101573.25;;;1.64;100.00
81835;BME280;71272;52.166;4.498;2024-03-08T06:30:50;101576.81;;;1.73;100.00
81835;BME280;71272;52.166;4.498;2024-03-08T06:33:17;101580.72;;;1.72;100.00
81835;BME280;71272;52.166;4.498;2024-03-08T06:35:42;101571.44;;;1.77;100.00
81835;BME280;71272;52.166;4.498;2024-03-08T06:38:07;101566.56;;;1.83;100.00
81835;BME280;71272;52.166;4.498;2024-03-08T06:40:33;101559.72;;;1.97;100.00
81835;BME280;71272;52.166;4.498;2024-03-08T06:42:58;101555.97;;;2.02;100.00
81835;BME280;71272;52.166;4.498;2024-03-08T06:45:23;101555.81;;;1.98;100.00
81835;BME280;71272;52.166;4.498;2024-03-08T06:47:51;101554.00;;;2.11;100.00
81835;BME280;71272;52.166;4.498;2024-03-08T06:50:16;101552.84;;;2.12;100.00
81835;BME280;71272;52.166;4.498;2024-03-08T06:52:41;101552.19;;;2.24;100.00
81835;BME280;71272;52.166;4.498;2024-03-08T06:55:11;101552.34;;;2.28;100.00
81835;BME280;71272;52.166;4.498;2024-03-08T06:57:40;101545.97;;;2.36;100.00
81835;BME280;71272;52.166;4.498;2024-03-08T07:00:08;101543.16;;;2.44;100.00
81835;BME280;71272;52.166;4.498;2024-03-08T07:02:35;101550.63;;;2.53;100.00
81835;BME280;71272;52.166;4.498;2024-03-08T07:05:01;101545.09;;;2.53;100.00
81835;BME280;71272;52.166;4.498;2024-03-08T07:07:26;101544.06;;;2.66;100.00
81835;BME280;71272;52.166;4.498;2024-03-08T07:09:52;101542.06;;;2.75;100.00
81835;BME280;71272;52.166;4.498;2024-03-08T07:12:17;101540.59;;;2.78;100.00
81835;BME280;71272;52.166;4.498;2024-03-08T07:14:42;101537.56;;;3.00;100.00
81835;BME280;71272;52.166;4.498;2024-03-08T07:17:10;101533.94;;;3.08;100.00
81835;BME280;71272;52.166;4.498;2024-03-08T07:19:36;101530.13;;;3.13;100.00
81835;BME280;71272;52.166;4.498;2024-03-08T07:22:03;101519.03;;;3.13;100.00
81835;BME280;71272;52.166;4.498;2024-03-08T07:24:29;101525.06;;;3.15;100.00
81835;BME280;71272;52.166;4.498;2024-03-08T07:27:16;101521.56;;;3.27;100.00
81835;BME280;71272;52.166;4.498;2024-03-08T07:29:41;101519.06;;;3.34;100.00
81835;BME280;71272;52.166;4.498;2024-03-08T07:32:07;101517.47;;;3.33;100.00
81835;BME280;71272;52.166;4.498;2024-03-08T07:34:48;101522.34;;;3.36;100.00
81835;BME280;71272;52.166;4.498;2024-03-08T07:37:15;101520.91;;;3.51;100.00
81835;BME280;71272;52.166;4.498;2024-03-08T07:39:41;101524.44;;;3.60;100.00
81835;BME280;71272;52.166;4.498;2024-03-08T07:42:06;101513.94;;;3.66;100.00
81835;BME280;71272;52.166;4.498;2024-03-08T07:44:32;101509.59;;;3.77;100.00
81835;BME280;71272;52.166;4.498;2024-03-08T07:46:58;101510.00;;;3.88;100.00
81835;BME280;71272;52.166;4.498;2024-03-08T07:49:23;101502.72;;;3.95;100.00
81835;BME280;71272;52.166;4.498;2024-03-08T07:51:49;101518.34;;;4.00;100.00
81835;BME280;71272;52.166;4.498;2024-03-08T07:54:15;101506.22;;;4.05;100.00
81835;BME280;71272;52.166;4.498;2024-03-08T07:56:40;101508.44;;;4.11;100.00
81835;BME280;71272;52.166;4.498;2024-03-08T07:59:05;101501.53;;;4.17;100.00
81835;BME280;71272;52.166;4.498;2024-03-08T08:01:31;101507.44;;;4.28;100.00
81835;BME280;71272;52.166;4.498;2024-03-08T08:03:58;101501.75;;;4.25;100.00
81835;BME280;71272;52.166;4.498;2024-03-08T08:06:24;101499.13;;;4.40;100.00
81835;BME280;71272;52.166;4.498;2024-03-08T08:08:50;101499.13;;;4.40;100.00
81835;BME280;71272;52.166;4.498;2024-03-08T08:11:15;101493.34;;;4.45;100.00
81835;BME280;71272;52.166;4.498;2024-03-08T08:13:41;101490.91;;;4.44;100.00
81835;BME280;71272;52.166;4.498;2024-03-08T08:16:08;101486.63;;;4.71;100.00
81835;BME280;71272;52.166;4.498;2024-03-08T08:18:34;101493.38;;;4.70;100.00
81835;BME280;71272;52.166;4.498;2024-03-08T08:21:04;101486.88;;;4.78;100.00
81835;BME280;71272;52.166;4.498;2024-03-08T08:23:31;101489.19;;;4.76;100.00
81835;BME280;71272;52.166;4.498;2024-03-08T08:25:56;101483.19;;;4.86;100.00
81835;BME280;71272;52.166;4.498;2024-03-08T08:28:22;101477.34;;;5.04;100.00
81835;BME280;71272;52.166;4.498;2024-03-08T08:30:47;101483.03;;;5.07;100.00
81835;BME280;71272;52.166;4.498;2024-03-08T08:33:14;101462.19;;;5.01;100.00
81835;BME280;71272;52.166;4.498;2024-03-08T08:35:40;101472.44;;;5.25;100.00
81835;BME280;71272;52.166;4.498;2024-03-08T08:38:05;101465.75;;;5.14;100.00
81835;BME280;71272;52.166;4.498;2024-03-08T08:40:32;101468.50;;;5.26;100.00
81835;BME280;71272;52.166;4.498;2024-03-08T08:42:58;101464.03;;;5.50;100.00
81835;BME280;71272;52.166;4.498;2024-03-08T08:45:24;101465.06;;;5.57;100.00
81835;BME280;71272;52.166;4.498;2024-03-08T08:47:49;101460.66;;;5.56;100.00
81835;BME280;71272;52.166;4.498;2024-03-08T08:50:15;101455.66;;;5.62;100.00
81835;BME280;71272;52.166;4.498;2024-03-08T08:52:41;101450.09;;;5.78;100.00
81835;BME280;71272;52.166;4.498;2024-03-08T08:55:09;101448.59;;;5.81;100.00
81835;BME280;71272;52.166;4.498;2024-03-08T08:57:39;101444.59;;;5.94;100.00
81835;BME280;71272;52.166;4.498;2024-03-08T09:00:05;101440.69;;;5.95;100.00
81835;BME280;71272;52.166;4.498;2024-03-08T09:02:32;101443.09;;;6.12;100.00
81835;BME280;71272;52.166;4.498;2024-03-08T09:04:57;101440.06;;;6.17;100.00
81835;BME280;71272;52.166;4.498;2024-03-08T09:07:23;101435.84;;;6.23;100.00
81835;BME280;71272;52.166;4.498;2024-03-08T09:09:49;101429.47;;;6.39;100.00
81835;BME280;71272;52.166;4.498;2024-03-08T09:12:14;101416.69;;;6.38;100.00
81835;BME280;71272;52.166;4.498;2024-03-08T09:14:40;101425.13;;;6.57;100.00
81835;BME280;71272;52.166;4.498;2024-03-08T09:17:06;101430.00;;;6.60;100.00
81835;BME280;71272;52.166;4.498;2024-03-08T09:19:34;101422.03;;;6.78;100.00
81835;BME280;71272;52.166;4.498;2024-03-08T09:22:00;101430.41;;;6.78;100.00
81835;BME280;71272;52.166;4.498;2024-03-08T09:24:25;101416.06;;;6.96;100.00
81835;BME280;71272;52.166;4.498;2024-03-08T09:26:50;101414.38;;;7.10;100.00
81835;BME280;71272;52.166;4.498;2024-03-08T09:29:17;101405.28;;;7.14;100.00
81835;BME280;71272;52.166;4.498;2024-03-08T09:31:42;101403.41;;;7.18;100.00
81835;BME280;71272;52.166;4.498;2024-03-08T09:34:07;101409.25;;;7.32;100.00
81835;BME280;71272;52.166;4.498;2024-03-08T09:36:34;101403.16;;;7.46;100.00
81835;BME280;71272;52.166;4.498;2024-03-08T09:38:59;101391.63;;;7.47;100.00
81835;BME280;71272;52.166;4.498;2024-03-08T09:41:25;101386.25;;;7.58;100.00
81835;BME280;71272;52.166;4.498;2024-03-08T09:43:51;101381.06;;;7.79;100.00
81835;BME280;71272;52.166;4.498;2024-03-08T09:46:18;101375.97;;;7.85;100.00
81835;BME280;71272;52.166;4.498;2024-03-08T09:48:45;101377.41;;;7.98;100.00
81835;BME280;71272;52.166;4.498;2024-03-08T09:51:12;101370.78;;;8.07;100.00
81835;BME280;71272;52.166;4.498;2024-03-08T09:53:40;101363.81;;;8.20;100.00
81835;BME280;71272;52.166;4.498;2024-03-08T09:56:05;101353.06;;;8.22;100.00
81835;BME280;71272;52.166;4.498;2024-03-08T09:58:31;101348.97;;;8.39;100.00
81835;BME280;71272;52.166;4.498;2024-03-08T10:00:59;101337.03;;;8.42;100.00
81835;BME280;71272;52.166;4.498;2024-03-08T10:03:30;101342.66;;;8.45;100.00
81835;BME280;71272;52.166;4.498;2024-03-08T10:05:58;101327.28;;;8.59;100.00
81835;BME280;71272;52.166;4.498;2024-03-08T10:08:29;101323.50;;;8.71;100.00
81835;BME280;71272;52.166;4.498;2024-03-08T10:10:56;101324.25;;;8.68;100.00
81835;BME280;71272;52.166;4.498;2024-03-08T10:13:26;101314.81;;;8.79;100.00
81835;BME280;71272;52.166;4.498;2024-03-08T10:15:54;101305.75;;;8.89;100.00
81835;BME280;71272;52.166;4.498;2024-03-08T10:18:20;101312.94;;;8.91;100.00
81835;BME280;71272;52.166;4.498;2024-03-08T10:20:46;101310.41;;;9.12;100.00
81835;BME280;71272;52.166;4.498;2024-03-08T10:23:11;101311.06;;;9.36;100.00
81835;BME280;71272;52.166;4.498;2024-03-08T10:25:37;101295.66;;;9.15;100.00
81835;BME280;71272;52.166;4.498;2024-03-08T10:28:03;101290.75;;;9.42;100.00
81835;BME280;71272;52.166;4.498;2024-03-08T10:30:32;101291.97;;;9.41;100.00
81835;BME280;71272;52.166;4.498;2024-03-08T10:32:57;101288.88;;;9.53;100.00
81835;BME280;71272;52.166;4.498;2024-03-08T10:35:23;101286.97;;;9.65;100.00
81835;BME280;71272;52.166;4.498;2024-03-08T10:37:50;101277.78;;;9.68;100.00
81835;BME280;71272;52.166;4.498;2024-03-08T10:40:24;101275.59;;;9.88;100.00
81835;BME280;71272;52.166;4.498;2024-03-08T10:42:57;101271.56;;;9.89;100.00
81835;BME280;71272;52.166;4.498;2024-03-08T10:45:31;101262.13;;;10.08;100.00
81835;BME280;71272;52.166;4.498;2024-03-08T10:50:43;101257.75;;;10.14;100.00
81835;BME280;71272;52.166;4.498;2024-03-08T10:53:13;101256.16;;;10.16;100.00
81835;BME280;71272;52.166;4.498;2024-03-08T10:55:40;101242.59;;;10.22;100.00
81835;BME280;71272;52.166;4.498;2024-03-08T10:58:06;101239.09;;;10.36;100.00
81835;BME280;71272;52.166;4.498;2024-03-08T11:00:33;101228.41;;;10.66;100.00
81835;BME280;71272;52.166;4.498;2024-03-08T11:02:58;101224.94;;;10.95;100.00
81835;BME280;71272;52.166;4.498;2024-03-08T11:05:32;101220.56;;;11.15;100.00
81835;BME280;71272;52.166;4.498;2024-03-08T11:08:01;101213.81;;;11.52;100.00
81835;BME280;71272;52.166;4.498;2024-03-08T11:10:29;101208.56;;;11.50;100.00
81835;BME280;71272;52.166;4.498;2024-03-08T11:12:54;101207.75;;;11.43;100.00
81835;BME280;71272;52.166;4.498;2024-03-08T11:15:19;101195.75;;;11.46;100.00
81835;BME280;71272;52.166;4.498;2024-03-08T11:17:47;101191.72;;;11.43;100.00
81835;BME280;71272;52.166;4.498;2024-03-08T11:20:15;101195.75;;;11.49;100.00
81835;BME280;71272;52.166;4.498;2024-03-08T11:23:01;101183.72;;;11.49;100.00
81835;BME280;71272;52.166;4.498;2024-03-08T11:28:27;101172.44;;;11.56;100.00
81835;BME280;71272;52.166;4.498;2024-03-08T11:33:31;101163.63;;;12.01;100.00
81835;BME280;71272;52.166;4.498;2024-03-08T11:38:32;101159.19;;;12.95;98.70
81835;BME280;71272;52.166;4.498;2024-03-08T11:40:58;101154.19;;;13.72;85.68
81835;BME280;71272;52.166;4.498;2024-03-08T11:43:23;101140.31;;;15.42;75.45
81835;BME280;71272;52.166;4.498;2024-03-08T11:45:49;101138.25;;;16.90;62.36
81835;BME280;71272;52.166;4.498;2024-03-08T11:48:15;101143.03;;;18.36;53.06
81835;BME280;71272;52.166;4.498;2024-03-08T11:50:40;101150.50;;;18.85;46.90
81835;BME280;71272;52.166;4.498;2024-03-08T11:53:07;101138.91;;;19.18;44.48
81835;BME280;71272;52.166;4.498;2024-03-08T11:55:33;101132.81;;;19.80;43.69
81835;BME280;71272;52.166;4.498;2024-03-08T11:58:05;101124.59;;;20.38;41.12
81835;BME280;71272;52.166;4.498;2024-03-08T12:00:33;101121.81;;;21.10;38.18
81835;BME280;71272;52.166;4.498;2024-03-08T12:03:05;101120.06;;;20.50;37.01
81835;BME280;71272;52.166;4.498;2024-03-08T12:05:31;101121.00;;;20.69;38.51
81835;BME280;71272;52.166;4.498;2024-03-08T12:07:58;101121.19;;;21.92;36.42
81835;BME280;71272;52.166;4.498;2024-03-08T12:10:24;101120.88;;;22.00;35.05
81835;BME280;71272;52.166;4.498;2024-03-08T12:12:52;101105.16;;;21.95;33.83
81835;BME280;71272;52.166;4.498;2024-03-08T12:15:19;101106.91;;;22.11;34.12
81835;BME280;71272;52.166;4.498;2024-03-08T12:17:49;101108.13;;;22.56;34.08
81835;BME280;71272;52.166;4.498;2024-03-08T12:20:16;101105.16;;;23.26;31.44
81835;BME280;71272;52.166;4.498;2024-03-08T12:22:43;101098.38;;;22.72;31.13
81835;BME280;71272;52.166;4.498;2024-03-08T12:25:10;101084.69;;;23.66;30.51
81835;BME280;71272;52.166;4.498;2024-03-08T12:27:38;101076.47;;;23.83;30.57
81835;BME280;71272;52.166;4.498;2024-03-08T12:30:22;101092.84;;;24.22;29.95
81835;BME280;71272;52.166;4.498;2024-03-08T12:35:19;101059.06;;;25.06;28.22
81835;BME280;71272;52.166;4.498;2024-03-08T12:37:48;101063.22;;;24.54;28.63
81835;BME280;71272;52.166;4.498;2024-03-08T12:40:14;101054.59;;;25.19;28.09
81835;BME280;71272;52.166;4.498;2024-03-08T12:42:42;101056.75;;;25.65;27.84
81835;BME280;71272;52.166;4.498;2024-03-08T12:45:08;101045.53;;;24.56;27.94
81835;BME280;71272;52.166;4.498;2024-03-08T12:47:35;101042.34;;;25.60;27.38
81835;BME280;71272;52.166;4.498;2024-03-08T12:50:01;101047.56;;;26.08;26.84
81835;BME280;71272;52.166;4.498;2024-03-08T12:52:26;101056.03;;;26.17;25.29
81835;BME280;71272;52.166;4.498;2024-03-08T12:54:51;101050.34;;;26.23;24.55
81835;BME280;71272;52.166;4.498;2024-03-08T12:57:17;101045.47;;;26.61;24.14
81835;BME280;71272;52.166;4.498;2024-03-08T12:59:42;101042.47;;;26.49;25.26